createdAt,value
2023-03-27T00:00:06.810Z,20.54
2023-03-27T00:01:06.789Z,20.54
2023-03-27T00:02:06.797Z,20.54
2023-03-27T00:03:06.979Z,20.53
2023-03-27T00:04:06.844Z,20.54
2023-03-27T00:05:06.757Z,20.53
2023-03-27T00:06:06.742Z,20.54
2023-03-27T00:07:06.743Z,20.53
2023-03-27T00:08:06.731Z,20.53
2023-03-27T00:09:06.704Z,20.53
2023-03-27T00:10:06.703Z,20.53
2023-03-27T00:11:06.687Z,20.53
2023-03-27T00:12:06.695Z,20.53
2023-03-27T00:13:06.665Z,20.54
2023-03-27T00:14:06.664Z,20.51
2023-03-27T00:15:06.650Z,20.53
2023-03-27T00:16:06.647Z,20.53
2023-03-27T00:17:06.628Z,20.54
2023-03-27T00:18:06.638Z,20.53
2023-03-27T00:19:06.600Z,20.53
2023-03-27T00:20:06.593Z,20.53
2023-03-27T00:21:06.704Z,20.53
2023-03-27T00:22:13.048Z,20.51
2023-03-27T00:23:06.576Z,20.53
2023-03-27T00:24:06.549Z,20.53
2023-03-27T00:25:06.537Z,20.51
2023-03-27T00:26:06.529Z,20.53
2023-03-27T00:27:06.522Z,20.53
2023-03-27T00:28:06.500Z,20.53
2023-03-27T00:29:06.511Z,20.51
2023-03-27T00:30:06.477Z,20.54
2023-03-27T00:31:06.530Z,20.53
2023-03-27T00:32:06.473Z,20.53
2023-03-27T00:33:06.508Z,20.53
2023-03-27T00:34:06.452Z,20.53
2023-03-27T00:35:06.444Z,20.53
2023-03-27T00:36:06.562Z,20.51
2023-03-27T00:37:06.419Z,20.53
2023-03-27T00:38:06.409Z,20.53
2023-03-27T00:39:06.389Z,20.51
2023-03-27T00:40:06.392Z,20.51
2023-03-27T00:41:06.444Z,20.53
2023-03-27T00:42:06.366Z,20.53
2023-03-27T00:43:06.347Z,20.53
2023-03-27T00:44:06.340Z,20.51
2023-03-27T00:45:06.325Z,20.53
2023-03-27T00:46:06.376Z,20.51
2023-03-27T00:47:06.321Z,20.53
2023-03-27T00:48:06.362Z,20.51
2023-03-27T00:49:06.298Z,20.53
2023-03-27T00:50:06.266Z,20.53
2023-03-27T00:51:06.279Z,20.53
2023-03-27T00:52:06.247Z,20.53
2023-03-27T00:53:06.241Z,20.53
2023-03-27T00:54:06.246Z,20.53
2023-03-27T00:55:06.218Z,20.51
2023-03-27T00:56:06.204Z,20.51
2023-03-27T00:57:06.244Z,20.53
2023-03-27T00:58:06.183Z,20.51
2023-03-27T00:59:06.194Z,20.51
2023-03-27T01:00:07.629Z,20.53
2023-03-27T01:01:06.191Z,20.53
2023-03-27T01:02:06.142Z,20.53
2023-03-27T01:03:06.265Z,20.51
2023-03-27T01:04:06.119Z,20.51
2023-03-27T01:05:06.121Z,20.51
2023-03-27T01:06:06.105Z,20.53
2023-03-27T01:07:06.088Z,20.53
2023-03-27T01:08:06.084Z,20.53
2023-03-27T01:09:06.071Z,20.51
2023-03-27T01:10:06.052Z,20.51
2023-03-27T01:11:06.045Z,20.53
2023-03-27T01:12:06.034Z,20.53
2023-03-27T01:13:06.027Z,20.53
2023-03-27T01:14:06.011Z,20.53
2023-03-27T01:15:05.997Z,20.51
2023-03-27T01:16:06.031Z,20.53
2023-03-27T01:17:05.991Z,20.54
2023-03-27T01:18:05.998Z,20.53
2023-03-27T01:19:05.987Z,20.53
2023-03-27T01:20:05.950Z,20.53
2023-03-27T01:21:05.957Z,20.53
2023-03-27T01:22:05.919Z,20.53
2023-03-27T01:23:05.925Z,20.53
2023-03-27T01:24:05.898Z,20.54
2023-03-27T01:25:05.904Z,20.53
2023-03-27T01:26:05.945Z,20.51
2023-03-27T01:27:05.871Z,20.51
2023-03-27T01:28:05.864Z,20.51
2023-03-27T01:29:05.862Z,20.53
2023-03-27T01:30:05.843Z,20.53
2023-03-27T01:31:05.844Z,20.51
2023-03-27T01:32:05.812Z,20.53
2023-03-27T01:33:05.863Z,20.53
2023-03-27T01:34:05.806Z,20.53
2023-03-27T01:35:05.801Z,20.51
2023-03-27T01:36:05.782Z,20.53
2023-03-27T01:37:05.765Z,20.51
2023-03-27T01:38:05.754Z,20.51
2023-03-27T01:39:05.748Z,20.53
2023-03-27T01:40:05.734Z,20.53
2023-03-27T01:41:05.743Z,20.53
2023-03-27T01:42:05.706Z,20.53
2023-03-27T01:43:05.711Z,20.51
2023-03-27T01:44:05.694Z,20.51
2023-03-27T01:45:05.690Z,20.50
2023-03-27T01:46:05.666Z,20.51
2023-03-27T01:47:06.316Z,20.53
2023-03-27T01:48:05.720Z,20.53
2023-03-27T01:49:05.654Z,20.53
2023-03-27T01:50:05.631Z,20.51
2023-03-27T01:51:05.630Z,20.51
2023-03-27T01:52:05.604Z,20.51
2023-03-27T01:53:05.598Z,20.51
2023-03-27T01:54:05.587Z,20.51
2023-03-27T01:55:05.577Z,20.53
2023-03-27T01:56:05.573Z,20.51
2023-03-27T01:57:05.634Z,20.53
2023-03-27T01:58:05.536Z,20.53
2023-03-27T01:59:05.540Z,20.51
2023-03-27T02:00:17.410Z,20.50
2023-03-27T02:01:05.787Z,20.51
2023-03-27T02:02:05.500Z,20.50
2023-03-27T02:03:05.514Z,20.50
2023-03-27T02:04:05.478Z,20.51
2023-03-27T02:05:05.518Z,20.51
2023-03-27T02:06:05.460Z,20.50
2023-03-27T02:07:05.458Z,20.51
2023-03-27T02:08:05.445Z,20.51
2023-03-27T02:09:05.432Z,20.50
2023-03-27T02:10:05.411Z,20.51
2023-03-27T02:11:05.406Z,20.50
2023-03-27T02:12:05.395Z,20.51
2023-03-27T02:13:05.382Z,20.51
2023-03-27T02:14:05.384Z,20.53
2023-03-27T02:15:23.629Z,20.51
2023-03-27T02:16:05.408Z,20.51
2023-03-27T02:17:05.357Z,20.50
2023-03-27T02:18:05.598Z,20.50
2023-03-27T02:19:05.336Z,20.53
2023-03-27T02:20:05.316Z,20.51
2023-03-27T02:21:05.298Z,20.51
2023-03-27T02:22:05.299Z,20.53
2023-03-27T02:23:05.297Z,20.53
2023-03-27T02:24:05.267Z,20.51
2023-03-27T02:25:05.254Z,20.53
2023-03-27T02:26:05.242Z,20.51
2023-03-27T02:27:05.243Z,20.53
2023-03-27T02:28:05.226Z,20.51
2023-03-27T02:29:05.214Z,20.53
2023-03-27T02:30:05.196Z,20.51
2023-03-27T02:31:06.171Z,20.53
2023-03-27T02:32:05.254Z,20.53
2023-03-27T02:33:05.216Z,20.51
2023-03-27T02:34:05.163Z,20.51
2023-03-27T02:35:05.206Z,20.53
2023-03-27T02:36:05.166Z,20.51
2023-03-27T02:37:05.158Z,20.53
2023-03-27T02:38:05.110Z,20.53
2023-03-27T02:39:05.105Z,20.51
2023-03-27T02:40:05.099Z,20.51
2023-03-27T02:41:05.103Z,20.53
2023-03-27T02:42:05.074Z,20.51
2023-03-27T02:43:05.064Z,20.53
2023-03-27T02:44:05.049Z,20.53
2023-03-27T02:45:05.091Z,20.53
2023-03-27T02:46:05.136Z,20.53
2023-03-27T02:47:05.840Z,20.54
2023-03-27T02:48:05.078Z,20.51
2023-03-27T02:49:05.007Z,20.53
2023-03-27T02:50:05.009Z,20.51
2023-03-27T02:51:04.990Z,20.53
2023-03-27T02:52:04.966Z,20.54
2023-03-27T02:53:04.985Z,20.53
2023-03-27T02:54:04.941Z,20.53
2023-03-27T02:55:04.949Z,20.53
2023-03-27T02:56:04.920Z,20.51
2023-03-27T02:57:04.941Z,20.53
2023-03-27T02:58:04.906Z,20.53
2023-03-27T02:59:04.923Z,20.54
2023-03-27T03:00:04.878Z,20.51
2023-03-27T03:01:04.888Z,20.53
2023-03-27T03:02:04.884Z,20.54
2023-03-27T03:03:04.992Z,20.53
2023-03-27T03:04:04.861Z,20.51
2023-03-27T03:05:04.856Z,20.54
2023-03-27T03:06:04.841Z,20.53
2023-03-27T03:07:04.809Z,20.53
2023-03-27T03:08:04.977Z,20.51
2023-03-27T03:09:04.817Z,20.53
2023-03-27T03:10:04.777Z,20.53
2023-03-27T03:11:04.781Z,20.53
2023-03-27T03:12:04.751Z,20.53
2023-03-27T03:13:04.749Z,20.53
2023-03-27T03:14:04.736Z,20.51
2023-03-27T03:15:04.726Z,20.53
2023-03-27T03:16:04.718Z,20.53
2023-03-27T03:17:04.700Z,20.53
2023-03-27T03:18:04.765Z,20.51
2023-03-27T03:19:04.684Z,20.53
2023-03-27T03:20:05.254Z,20.51
2023-03-27T03:21:04.696Z,20.54
2023-03-27T03:22:04.662Z,20.53
2023-03-27T03:23:04.645Z,20.51
2023-03-27T03:24:04.623Z,20.51
2023-03-27T03:25:04.639Z,20.54
2023-03-27T03:26:04.611Z,20.51
2023-03-27T03:27:04.622Z,20.51
2023-03-27T03:28:04.577Z,20.53
2023-03-27T03:29:04.600Z,20.51
2023-03-27T03:30:04.611Z,20.53
2023-03-27T03:31:04.569Z,20.53
2023-03-27T03:32:04.541Z,20.53
2023-03-27T03:33:04.574Z,20.51
2023-03-27T03:34:04.615Z,20.54
2023-03-27T03:35:04.507Z,20.51
2023-03-27T03:36:04.529Z,20.51
2023-03-27T03:37:05.367Z,20.54
2023-03-27T03:38:04.500Z,20.51
2023-03-27T03:39:04.475Z,20.53
2023-03-27T03:40:04.468Z,20.53
2023-03-27T03:41:04.444Z,20.51
2023-03-27T03:42:04.435Z,20.51
2023-03-27T03:43:04.429Z,20.51
2023-03-27T03:44:04.405Z,20.53
2023-03-27T03:45:04.417Z,20.53
2023-03-27T03:46:04.436Z,20.53
2023-03-27T03:47:04.882Z,20.53
2023-03-27T03:48:04.396Z,20.51
2023-03-27T03:49:04.360Z,20.54
2023-03-27T03:50:04.344Z,20.56
2023-03-27T03:51:04.346Z,20.54
2023-03-27T03:52:04.962Z,20.54
2023-03-27T03:53:04.323Z,20.54
2023-03-27T03:54:04.310Z,20.56
2023-03-27T03:55:04.303Z,20.56
2023-03-27T03:56:04.283Z,20.56
2023-03-27T03:57:04.290Z,20.56
2023-03-27T03:58:04.268Z,20.59
2023-03-27T03:59:04.249Z,20.59
2023-03-27T04:00:04.246Z,20.59
2023-03-27T04:01:04.247Z,20.61
2023-03-27T04:02:04.221Z,20.62
2023-03-27T04:03:04.254Z,20.64
2023-03-27T04:04:04.187Z,20.64
2023-03-27T04:05:08.422Z,20.65
2023-03-27T04:06:04.188Z,20.65
2023-03-27T04:07:04.162Z,20.65
2023-03-27T04:08:04.142Z,20.66
2023-03-27T04:09:04.139Z,20.68
2023-03-27T04:10:04.131Z,20.68
2023-03-27T04:11:04.117Z,20.68
2023-03-27T04:12:04.110Z,20.68
2023-03-27T04:13:04.089Z,20.69
2023-03-27T04:14:04.078Z,20.69
2023-03-27T04:15:04.089Z,20.68
2023-03-27T04:16:04.080Z,20.68
2023-03-27T04:17:04.069Z,20.69
2023-03-27T04:18:04.127Z,20.71
2023-03-27T04:19:04.029Z,20.71
2023-03-27T04:20:04.022Z,20.69
2023-03-27T04:21:04.023Z,20.71
2023-03-27T04:22:03.998Z,20.72
2023-03-27T04:23:04.004Z,20.72
2023-03-27T04:24:03.983Z,20.71
2023-03-27T04:25:03.962Z,20.71
2023-03-27T04:26:04.129Z,20.72
2023-03-27T04:27:03.968Z,20.72
2023-03-27T04:28:03.947Z,20.71
2023-03-27T04:29:03.926Z,20.72
2023-03-27T04:30:03.919Z,20.71
2023-03-27T04:31:03.933Z,20.71
2023-03-27T04:32:03.902Z,20.71
2023-03-27T04:33:03.918Z,20.71
2023-03-27T04:34:03.884Z,20.71
2023-03-27T04:35:03.863Z,20.69
2023-03-27T04:36:06.151Z,20.69
2023-03-27T04:37:03.839Z,20.71
2023-03-27T04:38:03.834Z,20.71
2023-03-27T04:39:03.836Z,20.71
2023-03-27T04:40:03.822Z,20.68
2023-03-27T04:41:03.814Z,20.72
2023-03-27T04:42:04.380Z,20.71
2023-03-27T04:43:03.798Z,20.68
2023-03-27T04:44:03.779Z,20.71
2023-03-27T04:45:03.756Z,20.71
2023-03-27T04:46:03.750Z,20.69
2023-03-27T04:47:05.808Z,20.69
2023-03-27T04:48:03.828Z,20.69
2023-03-27T04:49:03.710Z,20.69
2023-03-27T04:50:03.707Z,20.69
2023-03-27T04:51:03.689Z,20.69
2023-03-27T04:52:03.693Z,20.68
2023-03-27T04:53:03.681Z,20.68
2023-03-27T04:54:03.671Z,20.68
2023-03-27T04:55:03.660Z,20.68
2023-03-27T04:56:03.649Z,20.66
2023-03-27T04:57:03.807Z,20.68
2023-03-27T04:58:03.634Z,20.68
2023-03-27T04:59:03.627Z,20.68
2023-03-27T05:00:03.605Z,20.68
2023-03-27T05:01:03.670Z,20.66
2023-03-27T05:02:03.583Z,20.68
2023-03-27T05:03:03.743Z,20.68
2023-03-27T05:04:03.678Z,20.69
2023-03-27T05:05:03.540Z,20.68
2023-03-27T05:06:03.540Z,20.66
2023-03-27T05:07:03.524Z,20.68
2023-03-27T05:08:03.514Z,20.68
2023-03-27T05:09:03.504Z,20.68
2023-03-27T05:10:03.498Z,20.65
2023-03-27T05:11:03.481Z,20.66
2023-03-27T05:12:03.482Z,20.65
2023-03-27T05:13:03.461Z,20.66
2023-03-27T05:14:03.454Z,20.69
2023-03-27T05:15:03.433Z,20.68
2023-03-27T05:16:03.451Z,20.68
2023-03-27T05:17:03.412Z,20.68
2023-03-27T05:18:03.448Z,20.68
2023-03-27T05:19:03.420Z,20.69
2023-03-27T05:20:03.440Z,20.69
2023-03-27T05:21:03.396Z,20.71
2023-03-27T05:22:03.368Z,20.69
2023-03-27T05:23:03.346Z,20.69
2023-03-27T05:24:03.354Z,20.69
2023-03-27T05:25:03.319Z,20.72
2023-03-27T05:26:03.327Z,20.71
2023-03-27T05:27:03.904Z,20.72
2023-03-27T05:28:03.312Z,20.72
2023-03-27T05:29:03.285Z,20.72
2023-03-27T05:30:03.270Z,20.71
2023-03-27T05:31:03.356Z,20.74
2023-03-27T05:32:03.255Z,20.72
2023-03-27T05:33:03.319Z,20.72
2023-03-27T05:34:03.230Z,20.74
2023-03-27T05:35:03.211Z,20.72
2023-03-27T05:36:03.265Z,20.74
2023-03-27T05:37:03.188Z,20.74
2023-03-27T05:38:03.193Z,20.76
2023-03-27T05:39:03.172Z,20.77
2023-03-27T05:40:03.163Z,20.76
2023-03-27T05:41:03.150Z,20.76
2023-03-27T05:42:03.146Z,20.77
2023-03-27T05:43:03.137Z,20.77
2023-03-27T05:44:03.122Z,20.79
2023-03-27T05:45:03.111Z,20.77
2023-03-27T05:46:03.140Z,20.77
2023-03-27T05:47:03.168Z,20.80
2023-03-27T05:48:03.106Z,20.77
2023-03-27T05:49:03.058Z,20.77
2023-03-27T05:50:03.064Z,20.77
2023-03-27T05:51:03.039Z,20.79
2023-03-27T05:52:03.031Z,20.80
2023-03-27T05:53:03.032Z,20.77
2023-03-27T05:54:03.006Z,20.79
2023-03-27T05:55:03.002Z,20.79
2023-03-27T05:56:03.688Z,20.79
2023-03-27T05:57:03.044Z,20.79
2023-03-27T05:58:02.989Z,20.80
2023-03-27T05:59:02.949Z,20.79
2023-03-27T06:00:02.952Z,20.79
2023-03-27T06:01:02.947Z,20.77
2023-03-27T06:02:02.978Z,20.79
2023-03-27T06:03:02.983Z,20.79
2023-03-27T06:04:03.053Z,20.77
2023-03-27T06:05:02.911Z,20.79
2023-03-27T06:06:02.923Z,20.79
2023-03-27T06:07:02.866Z,20.79
2023-03-27T06:08:02.859Z,20.77
2023-03-27T06:09:02.862Z,20.79
2023-03-27T06:10:02.848Z,20.79
2023-03-27T06:11:02.822Z,20.79
2023-03-27T06:12:02.858Z,20.77
2023-03-27T06:13:02.820Z,20.77
2023-03-27T06:14:02.807Z,20.77
2023-03-27T06:15:02.779Z,20.77
2023-03-27T06:16:02.796Z,20.79
2023-03-27T06:17:02.754Z,20.79
2023-03-27T06:18:02.806Z,20.77
2023-03-27T06:19:02.748Z,20.79
2023-03-27T06:20:02.744Z,20.79
2023-03-27T06:21:02.740Z,20.77
2023-03-27T06:22:02.710Z,20.76
2023-03-27T06:23:02.701Z,20.79
2023-03-27T06:24:02.686Z,20.79
2023-03-27T06:25:02.678Z,20.77
2023-03-27T06:26:02.706Z,20.77
2023-03-27T06:27:03.413Z,20.77
2023-03-27T06:28:02.649Z,20.77
2023-03-27T06:29:08.031Z,20.77
2023-03-27T06:30:02.661Z,20.79
2023-03-27T06:31:02.647Z,20.77
2023-03-27T06:32:02.632Z,20.77
2023-03-27T06:33:02.635Z,20.77
2023-03-27T06:34:02.578Z,20.77
2023-03-27T06:35:02.563Z,20.77
2023-03-27T06:36:02.589Z,20.77
2023-03-27T06:37:02.589Z,20.77
2023-03-27T06:38:02.548Z,20.77
2023-03-27T06:39:02.536Z,20.77
2023-03-27T06:40:02.533Z,20.77
2023-03-27T06:41:02.801Z,20.77
2023-03-27T06:42:02.521Z,20.77
2023-03-27T06:43:02.479Z,20.76
2023-03-27T06:44:02.474Z,20.76
2023-03-27T06:45:02.459Z,20.77
2023-03-27T06:46:02.502Z,20.76
2023-03-27T06:47:02.468Z,20.76
2023-03-27T06:48:14.580Z,20.76
2023-03-27T06:49:02.418Z,20.77
2023-03-27T06:50:02.419Z,20.76
2023-03-27T06:51:02.402Z,20.74
2023-03-27T06:52:02.353Z,20.76
2023-03-27T06:53:04.301Z,20.77
2023-03-27T06:54:02.313Z,20.77
2023-03-27T06:55:02.353Z,20.76
2023-03-27T06:56:02.351Z,20.76
2023-03-27T06:57:02.410Z,20.76
2023-03-27T06:58:02.325Z,20.77
2023-03-27T06:59:02.266Z,20.76
2023-03-27T07:00:02.749Z,20.76
2023-03-27T07:01:02.253Z,20.76
2023-03-27T07:02:02.317Z,20.76
2023-03-27T07:03:02.290Z,20.77
2023-03-27T07:04:02.231Z,20.76
2023-03-27T07:05:05.272Z,20.77
2023-03-27T07:06:02.239Z,20.76
2023-03-27T07:07:02.178Z,20.77
2023-03-27T07:08:14.797Z,20.77
2023-03-27T07:09:02.170Z,20.77
2023-03-27T07:10:02.218Z,20.77
2023-03-27T07:11:11.682Z,20.76
2023-03-27T07:12:02.128Z,20.77
2023-03-27T07:13:02.152Z,20.76
2023-03-27T07:14:02.149Z,20.77
2023-03-27T07:15:02.089Z,20.77
2023-03-27T07:16:02.163Z,20.79
2023-03-27T07:17:02.050Z,20.77
2023-03-27T07:18:02.052Z,20.77
2023-03-27T07:19:02.540Z,20.77
2023-03-27T07:20:02.026Z,20.79
2023-03-27T07:21:02.010Z,20.77
2023-03-27T07:22:02.011Z,20.77
2023-03-27T07:23:01.986Z,20.76
2023-03-27T07:24:01.997Z,20.74
2023-03-27T07:25:01.962Z,20.72
2023-03-27T07:26:01.953Z,20.72
2023-03-27T07:27:01.989Z,20.71
2023-03-27T07:28:03.695Z,20.69
2023-03-27T07:29:02.014Z,20.68
2023-03-27T07:30:01.943Z,20.66
2023-03-27T07:31:01.911Z,20.66
2023-03-27T07:32:06.305Z,20.65
2023-03-27T07:33:02.006Z,20.64
2023-03-27T07:34:02.182Z,20.64
2023-03-27T07:35:01.856Z,20.61
2023-03-27T07:36:01.875Z,20.61
2023-03-27T07:37:01.855Z,20.61
2023-03-27T07:38:01.828Z,20.59
2023-03-27T07:39:01.848Z,20.59
2023-03-27T07:40:01.818Z,20.59
2023-03-27T07:41:01.797Z,20.59
2023-03-27T07:42:01.797Z,20.59
2023-03-27T07:43:01.923Z,20.61
2023-03-27T07:44:01.793Z,20.61
2023-03-27T07:45:03.999Z,20.61
2023-03-27T07:46:01.770Z,20.64
2023-03-27T07:47:01.734Z,20.64
2023-03-27T07:48:01.820Z,20.65
2023-03-27T07:49:01.708Z,20.65
2023-03-27T07:50:01.701Z,20.64
2023-03-27T07:52:00.679Z,20.68
2023-03-27T07:53:01.693Z,20.68
2023-03-27T07:54:01.656Z,20.71
2023-03-27T07:55:01.674Z,20.69
2023-03-27T07:56:01.674Z,20.71
2023-03-27T07:57:01.696Z,20.72
2023-03-27T07:58:03.202Z,20.72
2023-03-27T07:59:01.668Z,20.76
2023-03-27T08:00:01.632Z,20.74
2023-03-27T08:01:01.587Z,20.76
2023-03-27T08:02:01.574Z,20.76
2023-03-27T08:03:01.788Z,20.77
2023-03-27T08:04:01.716Z,20.79
2023-03-27T08:05:01.638Z,20.80
2023-03-27T08:06:01.541Z,20.81
2023-03-27T08:07:01.513Z,20.80
2023-03-27T08:08:01.556Z,20.81
2023-03-27T08:09:22.501Z,20.81
2023-03-27T08:10:01.488Z,20.83
2023-03-27T08:11:01.479Z,20.83
2023-03-27T08:12:01.471Z,20.83
2023-03-27T08:13:01.503Z,20.84
2023-03-27T08:14:01.458Z,20.84
2023-03-27T08:15:01.426Z,20.84
2023-03-27T08:16:01.427Z,20.86
2023-03-27T08:17:14.494Z,20.86
2023-03-27T08:18:01.427Z,20.86
2023-03-27T08:19:01.493Z,20.86
2023-03-27T08:20:01.406Z,20.86
2023-03-27T08:21:01.375Z,20.86
2023-03-27T08:22:01.407Z,20.86
2023-03-27T08:23:01.362Z,20.86
2023-03-27T08:24:01.355Z,20.84
2023-03-27T08:25:07.791Z,20.84
2023-03-27T08:26:01.311Z,20.86
2023-03-27T08:27:01.862Z,20.86
2023-03-27T08:28:01.296Z,20.86
2023-03-27T08:29:01.341Z,20.87
2023-03-27T08:30:01.315Z,20.87
2023-03-27T08:31:02.916Z,20.86
2023-03-27T08:32:01.557Z,20.87
2023-03-27T08:33:01.256Z,20.86
2023-03-27T08:34:01.257Z,20.87
2023-03-27T08:35:01.278Z,20.86
2023-03-27T08:36:01.291Z,20.86
2023-03-27T08:37:01.259Z,20.84
2023-03-27T08:38:01.274Z,20.84
2023-03-27T08:39:01.233Z,20.84
2023-03-27T08:40:01.213Z,20.86
2023-03-27T08:41:01.202Z,20.84
2023-03-27T08:42:01.199Z,20.86
2023-03-27T08:43:01.196Z,20.86
2023-03-27T08:44:01.187Z,20.86
2023-03-27T08:45:01.165Z,20.86
2023-03-27T08:46:01.203Z,20.86
2023-03-27T08:47:01.133Z,20.84
2023-03-27T08:48:01.203Z,20.83
2023-03-27T08:49:01.117Z,20.86
2023-03-27T08:50:01.066Z,20.84
2023-03-27T08:51:01.090Z,20.84
2023-03-27T08:52:01.030Z,20.84
2023-03-27T08:53:01.091Z,20.84
2023-03-27T08:54:01.021Z,20.84
2023-03-27T08:55:01.003Z,20.86
2023-03-27T08:56:01.000Z,20.83
2023-03-27T08:57:01.021Z,20.84
2023-03-27T08:58:00.968Z,20.84
2023-03-27T08:59:00.947Z,20.83
2023-03-27T09:00:00.965Z,20.86
2023-03-27T09:01:00.946Z,20.84
2023-03-27T09:02:00.949Z,20.84
2023-03-27T09:03:01.004Z,20.86
2023-03-27T09:04:00.986Z,20.84
2023-03-27T09:05:00.893Z,20.86
2023-03-27T09:06:00.883Z,20.84
2023-03-27T09:07:00.927Z,20.83
2023-03-27T09:08:00.866Z,20.84
2023-03-27T09:09:00.870Z,20.81
2023-03-27T09:10:00.846Z,20.83
2023-03-27T09:11:00.829Z,20.83
2023-03-27T09:12:00.827Z,20.80
2023-03-27T09:13:00.818Z,20.81
2023-03-27T09:14:00.808Z,20.83
2023-03-27T09:15:00.793Z,20.81
2023-03-27T09:16:00.894Z,20.83
2023-03-27T09:17:00.831Z,20.81
2023-03-27T09:18:00.873Z,20.81
2023-03-27T09:19:00.804Z,20.80
2023-03-27T09:20:00.796Z,20.81
2023-03-27T09:21:00.727Z,20.81
2023-03-27T09:22:00.723Z,20.81
2023-03-27T09:23:00.706Z,20.83
2023-03-27T09:24:00.692Z,20.83
2023-03-27T09:25:00.674Z,20.83
2023-03-27T09:26:00.688Z,20.83
2023-03-27T09:27:07.241Z,20.81
2023-03-27T09:28:00.646Z,20.83
2023-03-27T09:29:00.647Z,20.83
2023-03-27T09:30:05.701Z,20.83
2023-03-27T09:31:00.704Z,20.83
2023-03-27T09:32:00.697Z,20.83
2023-03-27T09:33:00.665Z,20.83
2023-03-27T09:34:00.583Z,20.84
2023-03-27T09:35:00.576Z,20.84
2023-03-27T09:36:00.848Z,20.83
2023-03-27T09:37:00.555Z,20.83
2023-03-27T09:38:00.554Z,20.84
2023-03-27T09:39:00.532Z,20.84
2023-03-27T09:40:00.521Z,20.83
2023-03-27T09:41:00.514Z,20.83
2023-03-27T09:42:00.507Z,20.84
2023-03-27T09:43:00.566Z,20.84
2023-03-27T09:44:00.527Z,20.83
2023-03-27T09:45:00.511Z,20.83
2023-03-27T09:46:00.471Z,20.83
2023-03-27T09:47:00.486Z,20.84
2023-03-27T09:48:00.526Z,20.84
2023-03-27T09:49:00.462Z,20.81
2023-03-27T09:50:00.463Z,20.83
2023-03-27T09:51:00.473Z,20.83
2023-03-27T09:52:00.447Z,20.84
2023-03-27T09:53:00.431Z,20.83
2023-03-27T09:54:00.393Z,20.84
2023-03-27T09:55:00.366Z,20.83
2023-03-27T09:56:02.398Z,20.83
2023-03-27T09:57:00.418Z,20.84
2023-03-27T09:58:00.379Z,20.86
2023-03-27T09:59:00.380Z,20.84
2023-03-27T10:00:00.362Z,20.83
2023-03-27T10:01:00.321Z,20.84
2023-03-27T10:02:00.285Z,20.84
2023-03-27T10:03:00.537Z,20.86
2023-03-27T10:04:00.317Z,20.84
2023-03-27T10:05:00.324Z,20.86
2023-03-27T10:06:00.294Z,20.84
2023-03-27T10:07:00.357Z,20.86
2023-03-27T10:08:00.282Z,20.86
2023-03-27T10:09:00.255Z,20.86
2023-03-27T10:10:00.248Z,20.86
2023-03-27T10:11:00.252Z,20.87
2023-03-27T10:12:00.233Z,20.87
2023-03-27T10:13:00.223Z,20.87
2023-03-27T10:14:00.207Z,20.87
2023-03-27T10:15:01.700Z,20.87
2023-03-27T10:16:00.193Z,20.87
2023-03-27T10:17:00.229Z,20.87
2023-03-27T10:18:00.255Z,20.89
2023-03-27T10:19:00.164Z,20.89
2023-03-27T10:20:00.150Z,20.89
2023-03-27T10:21:00.097Z,20.89
2023-03-27T10:22:00.119Z,20.89
2023-03-27T10:23:00.327Z,20.90
2023-03-27T10:24:00.110Z,20.89
2023-03-27T10:25:00.117Z,20.89
2023-03-27T10:26:00.092Z,20.89
2023-03-27T10:27:00.908Z,20.89
2023-03-27T10:28:00.091Z,20.90
2023-03-27T10:29:00.054Z,20.89
2023-03-27T10:30:00.102Z,20.90
2023-03-27T10:31:00.019Z,20.89
2023-03-27T10:32:00.128Z,20.89
2023-03-27T10:33:00.008Z,20.89
2023-03-27T10:33:59.953Z,20.87
2023-03-27T10:34:59.921Z,20.86
2023-03-27T10:35:59.972Z,20.86
2023-03-27T10:36:59.912Z,20.87
2023-03-27T10:37:59.962Z,20.86
2023-03-27T10:38:59.941Z,20.86
2023-03-27T10:39:59.935Z,20.86
2023-03-27T10:40:59.910Z,20.83
2023-03-27T10:41:59.924Z,20.84
2023-03-27T10:42:59.906Z,20.84
2023-03-27T10:43:59.894Z,20.86
2023-03-27T10:44:59.868Z,20.86
2023-03-27T10:45:59.925Z,20.86
2023-03-27T10:46:59.928Z,20.87
2023-03-27T10:47:59.921Z,20.87
2023-03-27T10:48:59.854Z,20.87
2023-03-27T10:49:59.870Z,20.89
2023-03-27T10:50:59.837Z,20.89
2023-03-27T10:51:59.805Z,20.87
2023-03-27T10:52:59.827Z,20.87
2023-03-27T10:53:59.841Z,20.89
2023-03-27T10:54:59.772Z,20.89
2023-03-27T10:55:59.787Z,20.89
2023-03-27T10:56:59.799Z,20.89
2023-03-27T10:57:59.753Z,20.89
2023-03-27T10:58:59.733Z,20.89
2023-03-27T10:59:59.724Z,20.89
2023-03-27T11:01:00.126Z,20.90
2023-03-27T11:01:59.662Z,20.90
2023-03-27T11:02:59.646Z,20.90
2023-03-27T11:03:59.634Z,20.89
2023-03-27T11:04:59.614Z,20.90
2023-03-27T11:05:59.595Z,20.91
2023-03-27T11:07:00.424Z,20.93
2023-03-27T11:07:59.567Z,20.93
2023-03-27T11:08:59.562Z,20.96
2023-03-27T11:09:59.576Z,20.98
2023-03-27T11:10:59.582Z,21.01
2023-03-27T11:11:59.752Z,21.02
2023-03-27T11:12:59.525Z,21.04
2023-03-27T11:13:59.508Z,21.04
2023-03-27T11:14:59.493Z,21.08
2023-03-27T11:15:59.482Z,21.11
2023-03-27T11:16:59.539Z,21.11
2023-03-27T11:17:59.504Z,21.16
2023-03-27T11:18:59.478Z,21.19
2023-03-27T11:19:59.553Z,21.20
2023-03-27T11:20:59.486Z,21.26
2023-03-27T11:21:59.456Z,21.27
2023-03-27T11:22:59.410Z,21.30
2023-03-27T11:23:59.439Z,21.34
2023-03-27T11:24:59.393Z,21.35
2023-03-27T11:25:59.379Z,21.39
2023-03-27T11:26:59.443Z,21.39
2023-03-27T11:27:59.353Z,21.44
2023-03-27T11:28:59.546Z,21.46
2023-03-27T11:29:59.329Z,21.48
2023-03-27T11:30:59.577Z,21.53
2023-03-27T11:31:59.409Z,21.53
2023-03-27T11:32:59.379Z,21.54
2023-03-27T11:33:59.296Z,21.57
2023-03-27T11:35:00.448Z,21.59
2023-03-27T11:35:59.300Z,21.61
2023-03-27T11:36:59.261Z,21.63
2023-03-27T11:37:59.247Z,21.66
2023-03-27T11:38:59.238Z,21.66
2023-03-27T11:39:59.236Z,21.69
2023-03-27T11:40:59.452Z,21.71
2023-03-27T11:41:59.219Z,21.71
2023-03-27T11:42:59.196Z,21.74
2023-03-27T11:43:59.184Z,21.75
2023-03-27T11:44:59.184Z,21.75
2023-03-27T11:45:59.188Z,21.75
2023-03-27T11:46:59.161Z,21.78
2023-03-27T11:47:59.207Z,21.81
2023-03-27T11:48:59.137Z,21.81
2023-03-27T11:49:59.124Z,21.82
2023-03-27T11:50:59.356Z,21.82
2023-03-27T11:51:59.112Z,21.85
2023-03-27T11:52:59.101Z,21.88
2023-03-27T11:53:59.077Z,21.90
2023-03-27T11:54:59.072Z,21.91
2023-03-27T11:55:59.067Z,21.91
2023-03-27T11:56:59.095Z,21.94
2023-03-27T11:57:59.033Z,21.94
2023-03-27T11:58:59.034Z,21.97
2023-03-27T11:59:59.021Z,21.95
2023-03-27T12:00:59.020Z,21.97
2023-03-27T12:01:59.048Z,21.98
2023-03-27T12:02:59.067Z,21.98
2023-03-27T12:03:59.037Z,21.99
2023-03-27T12:04:58.963Z,21.99
2023-03-27T12:05:58.972Z,22.01
2023-03-27T12:07:04.213Z,22.02
2023-03-27T12:07:58.930Z,22.02
2023-03-27T12:08:58.925Z,22.04
2023-03-27T12:09:58.919Z,22.04
2023-03-27T12:10:59.180Z,22.06
2023-03-27T12:11:58.893Z,22.06
2023-03-27T12:12:58.887Z,22.02
2023-03-27T12:14:02.074Z,21.98
2023-03-27T12:14:58.879Z,21.92
2023-03-27T12:15:58.854Z,21.85
2023-03-27T12:16:59.456Z,21.79
2023-03-27T12:17:58.877Z,21.74
2023-03-27T12:19:05.833Z,21.71
2023-03-27T12:19:58.806Z,21.64
2023-03-27T12:20:58.860Z,21.61
2023-03-27T12:21:58.785Z,21.61
2023-03-27T12:22:58.796Z,21.60
2023-03-27T12:23:58.791Z,21.59
2023-03-27T12:24:59.937Z,21.59
2023-03-27T12:25:59.553Z,21.59
2023-03-27T12:26:58.729Z,21.60
2023-03-27T12:27:58.719Z,21.60
2023-03-27T12:28:58.728Z,21.60
2023-03-27T12:29:58.693Z,21.63
2023-03-27T12:30:58.973Z,21.60
2023-03-27T12:31:58.688Z,21.64
2023-03-27T12:33:00.112Z,21.64
2023-03-27T12:33:59.556Z,21.67
2023-03-27T12:34:58.646Z,21.69
2023-03-27T12:35:58.670Z,21.71
2023-03-27T12:36:58.616Z,21.71
2023-03-27T12:37:58.612Z,21.74
2023-03-27T12:38:58.604Z,21.74
2023-03-27T12:39:58.656Z,21.74
2023-03-27T12:40:58.768Z,21.74
2023-03-27T12:41:58.557Z,21.74
2023-03-27T12:42:58.573Z,21.75
2023-03-27T12:43:58.532Z,21.74
2023-03-27T12:45:00.024Z,21.72
2023-03-27T12:45:58.577Z,21.72
2023-03-27T12:46:58.561Z,21.71
2023-03-27T12:47:58.519Z,21.71
2023-03-27T12:48:58.507Z,21.71
2023-03-27T12:49:58.477Z,21.71
2023-03-27T12:50:58.661Z,21.69
2023-03-27T12:51:58.456Z,21.69
2023-03-27T12:52:58.455Z,21.67